Warning: Javascript must be enabled to use all the features on this page!


Page Loading - Please Wait...

Click to hideNews Bulletins

Peak Streamflow for the Nation

USGS 04163400 PLUM BROOK AT UTICA, MI

Macomb County, Michigan
Hydrologic Unit Code 04090003
Latitude  42°36'05", Longitude  83°04'17" NAD27
Drainage area 16.5  square miles
Gage datum 617.27 feet above NAVD88
Output formats
Table
Graph
Tab-separated file
peakfq (watstore) format
Reselect output format
Water
Year
Date Gage
Height
(feet)
Stream-
flow
(cfs)
1966 1965-12-25 6.24 261
1967 1967-03-11 5.90 178
1968 1968-06-26 10.36 1,160
1969 1969-07-05 9.01 624
1970 1970-04-03 5.832 175
1971 1971-02-20   3202
1972 1972-08-23 6.412 205
1973 1972-12-31   4002
1974 1974-02-22 8.13 406
1975 1975-04-19 8.76 632
1976 1976-07-29 8.41 488
1977 1977-04-03 8.22 442
1978 1978-03-21 6.97 282
1979 1979-04-14 8.20 449
1980 1980-04-04 8.05 391
1981 1981-02-17 7.63 331
1982 1981-10-01 9.292 736
1983 1983-05-02 8.58 478
1984 1984-03-16 8.03 379
1985 1985-02-23 9.001 600
1986 1986-03-11 7.92 369
1987 1987-04-05 5.87 164
1988 1987-12-15 6.89 233
1989 1989-06-21 8.80 472
1990 1990-02-22 8.27 434
1991 1991-05-26 8.04 389
1992 1992-07-31 5.87 187
1993 1993-01-04 7.78 349
1994 1994-06-26 6.97 264
1995 1995-03-07 6.80 253
1996 1996-06-18 10.62 1,290
1997 1997-05-19 8.04 400
1998 1998-02-18 8.72 540
2000 2000-07-30 7.65 500
2001 2001-02-09 7.52 488
2002 2001-10-16 6.77 418
2003 2003-04-04 5.57 314
2004 2004-05-23 7.13 442
2005 2004-12-07 6.47 385
2006 2006-02-17 7.14 452
2007 2007-03-02 6.74 416
2008 2008-09-14 7.08 447
2009 2009-03-08 7.12 375
2010 2010-06-06 6.59 329
2011 2011-05-25 7.83 500
2012 2011-11-29 7.062 428
2013 2013-07-10 9.16 391
2014 2014-08-11 10.99 552
2015 2015-05-31 8.96 374
2016 2016-03-24 7.98 299
2017 2017-01-12 8.69 353
2018 2018-02-20 9.31 403
2019 2019-08-13 11.52 602
2020 2020-01-11 9.51 420
2021 2021-06-26 9.68 546
?
  Peak Gage-Height Qualification Codes.
?
  Peak Streamflow Qualification Codes.